Latest Weather Observations for Hervey Bay

IDQ60801

Issued at 1:05 pm EST Wednesday 22 October 2014 (issued every 30 minutes, with the page automatically refreshed every 10 minutes)

About weather observations | Map of weather stations | Latest weather observations for QLD | Other Formats
Station Details ID: 040405 Name: HERVEY BAY AIRPORT Lat: -25.32 Lon: 152.88 Height: 12.98 m
Data from the previous 72 hours. | See also: Recent months at Hervey Bay
Date/Time
EST
Temp
°C
App
Temp
°C
Dew
Point
Rel
Hum
%
Delta-T
°C
Wind Press
QNH
hPa
Press
MSL
hPa
Rain
since 9 am
mm
Dir
 
Spd
km/h
Gust
km/h
Spd
kts
Gust
kts
22/01:00pm 24.5 20.3 12.5 47 6.9 ESE 26 39 14 21 1022.1 1022.0 0.0
22/12:30pm 24.3 20.6 11.6 45 7.1 SSE 22 39 12 21 1022.4 1022.3 0.0
22/12:00pm 25.1 21.4 12.7 46 7.1 SSE 24 44 13 24 1022.8 1022.7 0.0
22/11:30am 24.3 20.5 12.3 47 6.9 S 24 35 13 19 1023.0 1022.9 0.0
22/11:00am 23.9 19.3 11.2 44 7.1 S 26 37 14 20 1023.6 1023.5 0.0
22/10:30am 24.2 20.4 11.2 44 7.3 SE 22 33 12 18 1023.8 1023.7 0.0
22/10:00am 23.2 18.8 10.3 44 7.1 SSE 24 35 13 19 1024.1 1024.0 0.0
22/09:30am 23.8 19.2 9.8 41 7.6 SSE 24 41 13 22 1024.2 1024.1 0.0
22/09:00am 23.3 19.0 10.7 45 6.9 SSE 24 43 13 23 1024.2 1024.1 0.0
22/08:30am 22.6 18.1 10.1 45 6.8 SE 24 44 13 24 1024.2 1024.1 0.0
22/08:00am 21.7 17.8 10.8 50 6.0 SSE 22 39 12 21 1024.2 1024.1 0.0
22/07:30am 21.9 19.3 11.9 53 5.6 SSE 17 28 9 15 1023.8 1023.7 0.0
22/07:00am 21.8 18.5 11.5 52 5.7 SE 20 35 11 19 1023.6 1023.5 0.0
22/06:30am 21.6 18.5 12.2 55 5.3 SSE 20 32 11 17 1023.4 1023.3 0.0
22/06:00am 20.6 17.5 11.5 56 5.0 SE 19 28 10 15 1023.2 1023.1 0.0
22/05:30am 20.1 17.2 12.3 61 4.4 SE 19 32 10 17 1022.9 1022.8 0.0
22/05:00am 20.0 17.7 13.0 64 4.0 SE 17 30 9 16 1022.7 1022.6 0.0
22/04:30am 19.6 18.2 13.3 67 3.6 SSE 13 20 7 11 1022.6 1022.5 0.0
22/04:00am 19.6 18.6 13.3 67 3.6 SSE 11 20 6 11 1022.7 1022.6 0.0
22/03:30am 19.7 18.7 13.4 67 3.6 SSE 11 19 6 10 1022.6 1022.5 0.0
22/03:00am 20.0 18.8 13.9 68 3.5 SSE 13 19 7 10 1022.7 1022.6 0.0
22/02:30am 19.9 19.1 14.0 69 3.4 SSE 11 17 6 9 1023.0 1022.9 0.0
22/02:00am 19.7 18.5 13.9 69 3.3 SE 13 20 7 11 1023.2 1023.1 0.0
22/01:30am 20.3 18.8 14.2 68 3.5 SSE 15 26 8 14 1023.6 1023.5 0.0
22/01:00am 20.5 19.1 14.6 69 3.4 SE 15 30 8 16 1023.8 1023.7 0.0
22/12:30am 20.0 19.0 14.6 71 3.1 SE 13 20 7 11 1024.2 1024.1 0.0
22/12:00am 20.3 19.3 14.7 70 3.3 SSE 13 20 7 11 1024.7 1024.6 0.0
 
Date/Time
EST
Temp
°C
App
Temp
°C
Dew
Point
Rel
Hum
%
Delta-T
°C
Wind Press
QNH
hPa
Press
MSL
hPa
Rain
since 9 am
mm
Dir
 
Spd
km/h
Gust
km/h
Spd
kts
Gust
kts
21/11:30pm 20.6 19.5 15.2 71 3.2 SE 15 20 8 11 1025.0 1024.9 0.0
21/11:00pm 20.4 19.3 15.2 72 3.1 SE 15 20 8 11 1025.3 1025.2 0.0
21/10:30pm 20.7 19.3 15.5 72 3.1 SSE 17 26 9 14 1025.5 1025.4 0.0
21/10:00pm 20.7 20.1 16.7 78 2.4 SSE 15 22 8 12 1025.6 1025.5 0.0
21/09:30pm 20.1 19.1 16.5 80 2.2 SE 17 28 9 15 1025.8 1025.7 0.0
21/09:00pm 21.4 20.1 15.9 71 3.3 SE 17 30 9 16 1025.6 1025.5 0.0
21/08:30pm 21.6 20.1 16.3 72 3.2 SE 19 28 10 15 1025.4 1025.3 0.0
21/08:00pm 21.4 20.2 16.1 72 3.2 SE 17 24 9 13 1025.1 1025.0 0.0
21/07:30pm 21.4 20.4 16.6 74 2.9 SE 17 28 9 15 1024.9 1024.8 0.0
21/07:00pm 21.6 20.6 16.6 73 3.0 SE 17 28 9 15 1024.6 1024.5 0.0
21/06:30pm 21.4 20.6 16.1 72 3.2 ESE 15 20 8 11 1024.4 1024.3 0.0
21/06:00pm 21.3 19.3 16.5 74 2.9 ESE 22 32 12 17 1024.4 1024.3 0.0
21/05:30pm 22.1 20.8 15.7 67 3.8 SSE 17 22 9 12 1024.0 1023.9 0.0
21/05:00pm 22.1 20.4 15.7 67 3.8 SSE 19 28 10 15 1023.7 1023.6 0.0
21/04:30pm 23.0 21.2 15.6 63 4.4 SE 19 30 10 16 1023.3 1023.2 0.0
21/04:00pm 24.0 22.5 15.2 58 5.3 SE 17 26 9 14 1023.3 1023.2 0.0
21/03:30pm 23.8 21.8 15.0 57 5.3 SE 19 28 10 15 1023.2 1023.1 0.0
21/03:00pm 23.5 20.8 14.5 57 5.3 SE 22 32 12 17 1023.3 1023.2 0.0
21/02:30pm 25.1 22.8 14.6 52 6.3 SE 20 28 11 15 1023.2 1023.1 0.0
21/02:00pm 24.8 21.7 14.6 53 6.1 ESE 24 39 13 21 1023.3 1023.2 0.0
21/01:30pm 25.1 21.6 13.3 48 6.9 SE 24 35 13 19 1023.6 1023.5 0.0
21/01:00pm 25.2 21.6 13.1 47 7.0 SE 24 39 13 21 1023.9 1023.8 0.0
21/12:30pm 25.6 22.0 13.1 46 7.3 SE 24 35 13 19 1024.3 1024.2 0.0
21/12:00pm 25.6 22.5 13.5 47 7.1 SE 22 39 12 21 1024.6 1024.5 0.0
21/11:30am 25.6 22.5 13.5 47 7.1 SE 22 33 12 18 1024.9 1024.8 0.0
21/11:00am 25.7 22.4 13.9 48 6.9 ESE 24 35 13 19 1025.2 1025.1 0.0
21/10:30am 24.8 21.5 12.7 47 7.0 ESE 22 33 12 18 1025.4 1025.3 0.0
21/10:00am 24.5 21.5 12.5 47 6.9 SE 20 32 11 17 1025.7 1025.6 0.0
21/09:30am 24.4 21.4 12.7 48 6.7 ESE 20 30 11 16 1026.0 1025.9 0.0
21/09:00am 24.1 21.4 13.0 50 6.4 SE 19 28 10 15 1026.0 1025.9 0.0
21/08:30am 23.2 19.7 12.2 50 6.2 SE 22 35 12 19 1026.0 1025.9 0.0
21/08:00am 22.8 19.4 11.2 48 6.4 SE 20 28 11 15 1025.7 1025.6 0.0
21/07:30am 22.5 19.3 11.9 51 6.0 SE 20 30 11 16 1025.4 1025.3 0.0
21/07:00am 22.1 20.1 12.6 55 5.4 SE 15 28 8 15 1025.2 1025.1 0.0
21/06:30am 21.5 19.2 12.9 58 4.9 SE 17 26 9 14 1025.0 1024.9 0.0
21/06:00am 20.7 18.7 12.7 60 4.5 ESE 15 19 8 10 1024.7 1024.6 0.0
21/05:30am 20.1 18.4 12.6 62 4.2 SE 13 20 7 11 1024.3 1024.2 0.0
21/05:00am 19.1 17.7 12.1 64 3.9 SE 11 17 6 9 1024.1 1024.0 0.0
21/04:30am 19.0 17.6 12.3 65 3.7 SSE 11 20 6 11 1023.9 1023.8 0.0
21/04:00am 19.6 18.7 12.6 64 3.9 SE 9 13 5 7 1023.8 1023.7 0.0
21/03:30am 19.2 17.8 12.2 64 3.9 SE 11 15 6 8 1023.7 1023.6 0.0
21/03:00am 19.5 17.9 12.7 65 3.8 SE 13 24 7 13 1023.9 1023.8 0.0
21/02:30am 19.5 18.0 13.0 66 3.7 SE 13 17 7 9 1023.8 1023.7 0.0
21/02:00am 19.2 18.6 13.4 69 3.3 SSE 9 13 5 7 1024.1 1024.0 0.0
21/01:30am 20.1 18.9 14.0 68 3.5 SE 13 22 7 12 1024.2 1024.1 0.0
21/01:00am 19.5 19.5 15.2 76 2.5 SSE 9 15 5 8 1024.5 1024.4 0.0
21/12:30am 16.4 16.4 14.1 86 1.3 S 7 9 4 5 1024.8 1024.7 0.0
21/12:00am 16.2 15.8 14.0 87 1.2 S 9 11 5 6 1025.1 1025.0 0.0
 
Date/Time
EST
Temp
°C
App
Temp
°C
Dew
Point
Rel
Hum
%
Delta-T
°C
Wind Press
QNH
hPa
Press
MSL
hPa
Rain
since 9 am
mm
Dir
 
Spd
km/h
Gust
km/h
Spd
kts
Gust
kts
20/11:30pm 16.3 15.9 14.1 87 1.2 S 9 11 5 6 1025.4 1025.3 0.0
20/11:00pm 16.8 16.8 13.5 81 1.8 S 6 9 3 5 1025.4 1025.3 0.0
20/10:30pm 19.0 18.8 13.6 71 3.1 SSE 7 11 4 6 1025.6 1025.5 0.0
20/10:00pm 19.8 19.4 14.0 69 3.3 SE 9 15 5 8 1025.6 1025.5 0.0
20/09:30pm 19.9 19.8 14.0 69 3.4 SSE 7 11 4 6 1025.3 1025.2 0.0
20/09:00pm 20.4 19.5 13.8 66 3.8 SE 11 15 6 8 1024.8 1024.7 0.0
20/08:30pm 20.5 18.8 13.7 65 3.9 ESE 15 22 8 12 1024.4 1024.3 0.0
20/08:00pm 20.6 18.9 13.6 64 4.0 ESE 15 22 8 12 1024.1 1024.0 0.0
20/07:30pm 20.9 18.8 13.6 63 4.2 ESE 17 24 9 13 1023.7 1023.6 0.0
20/07:00pm 20.8 18.7 13.5 63 4.2 ESE 17 24 9 13 1023.5 1023.4 0.0
20/06:30pm 21.1 18.5 13.3 61 4.5 ESE 19 24 10 13 1023.2 1023.1 0.0
20/06:00pm 21.2 18.6 13.1 60 4.6 ESE 19 24 10 13 1022.7 1022.6 0.0
20/05:30pm 22.0 19.6 12.8 56 5.2 ESE 17 22 9 12 1022.2 1022.1 0.0
20/05:00pm 22.8 19.8 12.1 51 6.0 ESE 19 26 10 14 1022.0 1021.9 0.0
20/04:30pm 23.7 20.5 12.0 48 6.6 ESE 20 28 11 15 1021.7 1021.6 0.0
20/04:00pm 24.0 20.8 12.0 47 6.8 ESE 20 30 11 16 1021.5 1021.4 0.0
20/03:30pm 24.4 21.4 12.7 48 6.7 ESE 20 30 11 16 1021.4 1021.3 0.0
20/03:00pm 25.6 22.9 13.5 47 7.1 ESE 20 30 11 16 1021.3 1021.2 0.0
20/02:30pm 25.1 22.7 12.7 46 7.2 ESE 17 28 9 15 1021.5 1021.4 0.0
20/02:00pm 25.4 22.4 12.6 45 7.4 E 20 30 11 16 1021.8 1021.7 0.0
20/01:30pm 26.3 24.0 14.1 47 7.3 E 19 26 10 14 1022.1 1022.0 0.0
20/01:00pm 25.3 22.5 12.5 45 7.4 E 19 28 10 15 1022.5 1022.4 0.0
20/12:30pm 25.4 23.4 12.6 45 7.4 ESE 15 24 8 13 1022.9 1022.8 0.0
20/12:00pm 25.0 22.6 12.6 46 7.1 ESE 17 26 9 14 1023.1 1023.0 0.0
20/11:30am 25.3 22.3 12.5 45 7.4 E 20 26 11 14 1023.6 1023.5 0.0
20/11:00am 25.1 22.3 12.7 46 7.1 E 19 30 10 16 1023.9 1023.8 0.0
20/10:30am 24.5 22.4 12.5 47 6.9 E 15 22 8 12 1024.4 1024.3 0.0
20/10:00am 24.3 22.4 12.9 49 6.6 ESE 15 20 8 11 1024.8 1024.7 0.0
20/09:30am 24.4 22.4 12.7 48 6.7 E 15 20 8 11 1025.1 1025.0 0.0
20/09:00am 23.3 21.4 11.7 48 6.5 ESE 13 24 7 13 1025.4 1025.3 0.0
20/08:30am 22.8 21.3 11.8 50 6.2 SE 11 17 6 9 1025.4 1025.3 0.0
20/08:00am 22.3 20.9 12.3 53 5.6 E 11 20 6 11 1025.3 1025.2 0.0
20/07:30am 20.0 19.3 13.2 65 3.9 SSW 9 13 5 7 1025.3 1025.2 0.0
20/07:00am 17.9 17.6 13.2 74 2.6 SSW 7 11 4 6 1025.1 1025.0 0.0
20/06:30am 16.0 15.5 12.7 81 1.8 SSW 7 11 4 6 1024.9 1024.8 0.0
20/06:00am 13.8 13.2 12.4 91 0.8 SSW 7 11 4 6 1024.7 1024.6 0.0
20/05:30am 11.4 11.5 10.3 93 0.6 CALM 0 0 0 0 1024.1 1024.0 0.0
20/05:00am 10.9 10.9 9.8 93 0.6 CALM 0 0 0 0 1023.9 1023.8 0.0
20/04:30am 10.8 10.7 9.4 91 0.7 CALM 0 0 0 0 1023.7 1023.6 0.0
20/04:00am 11.1 11.1 9.9 92 0.6 CALM 0 0 0 0 1023.7 1023.6 0.0
20/03:30am 11.3 11.4 10.0 92 0.7 CALM 0 0 0 0 1023.6 1023.5 0.0
20/03:00am 11.4 11.5 10.0 91 0.7 CALM 0 0 0 0 1023.7 1023.6 0.0
20/02:30am 11.7 11.8 10.3 91 0.7 CALM 0 0 0 0 1023.8 1023.7 0.0
20/02:00am 12.1 12.3 10.5 90 0.8 CALM 0 0 0 0 1023.9 1023.8 0.0
20/01:30am 12.4 11.5 10.8 90 0.8 SSW 6 7 3 4 1024.0 1023.9 0.0
20/01:00am 12.7 11.6 10.8 88 1.0 SSW 7 7 4 4 1024.3 1024.2 0.0
20/12:30am 13.3 12.4 11.2 87 1.1 SSW 7 7 4 4 1024.7 1024.6 0.0
20/12:00am 14.2 13.3 11.4 83 1.5 SSW 7 9 4 5 1024.8 1024.7 0.0
 
Date/Time
EST
Temp
°C
App
Temp
°C
Dew
Point
Rel
Hum
%
Delta-T
°C
Wind Press
QNH
hPa
Press
MSL
hPa
Rain
since 9 am
mm
Dir
 
Spd
km/h
Gust
km/h
Spd
kts
Gust
kts
19/11:30pm 15.7 14.7 11.1 74 2.5 S 7 9 4 5 1025.2 1025.1 0.0
19/11:00pm 18.0 17.2 11.6 66 3.5 SSE 7 11 4 6 1025.5 1025.4 0.0
19/10:30pm 19.2 17.7 12.0 63 4.0 SE 11 15 6 8 1025.6 1025.5 0.0
19/10:00pm 19.3 17.9 12.1 63 4.0 SE 11 19 6 10 1025.7 1025.6 0.0
19/09:30pm 19.3 18.5 12.8 66 3.7 SE 9 13 5 7 1025.7 1025.6 0.0
19/09:00pm 18.8 18.2 12.3 66 3.6 SSE 7 11 4 6 1025.7 1025.6 0.0
19/08:30pm 19.8 18.1 12.6 63 4.0 SE 13 19 7 10 1025.7 1025.6 0.0
19/08:00pm 19.9 18.7 12.7 63 4.0 SE 11 17 6 9 1025.3 1025.2 0.0
19/07:30pm 20.3 17.9 12.8 62 4.2 ESE 17 22 9 12 1025.0 1024.9 0.0
19/07:00pm 20.5 17.7 12.5 60 4.5 ESE 19 26 10 14 1024.8 1024.7 0.0
19/06:30pm 20.7 17.9 12.7 60 4.5 SE 19 32 10 17 1024.4 1024.3 0.0
19/06:00pm 21.0 18.5 12.2 57 4.9 SE 17 30 9 16 1024.1 1024.0 0.0
19/05:30pm 21.5 17.8 11.5 53 5.6 SE 22 33 12 18 1023.8 1023.7 0.0
19/05:00pm 22.1 18.2 10.9 49 6.2 SE 22 37 12 20 1023.5 1023.4 0.0
19/04:30pm 22.6 18.6 11.7 50 6.1 SE 24 33 13 18 1023.3 1023.2 0.0
19/04:00pm 23.2 19.5 11.6 48 6.5 SE 22 35 12 19 1023.2 1023.1 0.0
19/03:30pm 23.9 20.4 12.2 48 6.7 SE 22 35 12 19 1023.0 1022.9 0.0
19/03:00pm 24.2 19.9 11.9 46 7.0 SE 26 37 14 20 1023.1 1023.0 0.0
19/02:30pm 24.5 20.5 11.8 45 7.2 ESE 24 41 13 22 1023.2 1023.1 0.0
19/02:00pm 24.5 20.4 11.5 44 7.3 SE 24 37 13 20 1023.4 1023.3 0.0
19/01:30pm 24.9 21.3 13.1 48 6.9 SE 24 39 13 21 1023.7 1023.6 0.0

Other Formats:

Comma delimited format used in spreadsheet applications
http://www.bom.gov.au/fwo/IDQ60801/IDQ60801.95565.axf

JavaScript Object Notation format (JSON) in row-major order
http://www.bom.gov.au/fwo/IDQ60801/IDQ60801.95565.json